As Olivia — DYQC — position and weather

sailwx.info

Track history (hours):
 
Tides and Currents Weather Stations Pressure Air Temp Water Temp Dewpoint Dewpoint Depression Visibility Wind Speed Wind Dir Waves Ship Positions

As Olivia

Last reported at 2017-Feb-27 12:22 UTC. Time now 2017-Feb-28 09:53 UTC.
Position N 31°02' E 122°50'.

Length 146 m; draft 7 m.

Type: Tanker. MMSI: 548767000.

Date/timePositionNaut miles runAvg speedWind from/ knotsBaromVisibWave heightAir tempDewpointWater temp
2017-Feb-27 12:22N 31°02' E 122°50'2212.0
2017-Feb-27 10:33N 31°06' E 122°25'1413.7
2017-Feb-27 09:33N 31°11' E 122°10'1414.3
2017-Feb-27 08:33N 31°16' E 121°54'1414.0
2017-Feb-27 07:33N 31°21' E 121°39'1010.4
2017-Feb-27 06:33N 31°26' E 121°29'9 8.7
2017-Feb-27 05:34N 31°32' E 121°21'1110.8
2017-Feb-27 04:33N 31°40' E 121°12'1212.2
2017-Feb-27 03:33N 31°47' E 121°00'2510.8
2017-Feb-27 01:12N 32°00' E 120°35'710.0
2017-Feb-27 00:32N 32°00' E 120°27'1 0.0
2017-Feb-26 06:08N 31°60' E 120°27'2 3.4
2017-Feb-26 05:33N 31°58' E 120°26'4 0.2
2017-Feb-25 01:33N 32°03' E 120°25'7 6.7
2017-Feb-25 00:31N 32°03' E 120°33'23 1.3
2017-Feb-24 06:23N 31°50' E 120°55'8 9.9
2017-Feb-24 05:33N 31°46' E 121°03'1414.1
2017-Feb-24 04:33N 31°37' E 121°16'1312.6
2017-Feb-24 03:34N 31°29' E 121°27'9 8.9
2017-Feb-24 02:33N 31°23' E 121°35'9 8.6
2017-Feb-24 01:29N 31°18' E 121°44'  
2017-Feb-20 07:14N 38°52' E 122°15'0 0.0
2017-Feb-20 06:16N 38°52' E 122°15'0 0.0
2017-Feb-20 05:29N 38°52' E 122°15'0 0.0
2017-Feb-20 04:26N 38°52' E 122°15'0 0.0
2017-Feb-20 03:18N 38°52' E 122°15'0 0.0
2017-Feb-20 02:33N 38°52' E 122°15'0 0.0
2017-Feb-20 01:18N 38°52' E 122°15'  
Track history (hours):
 
Tides and Currents Weather Stations Pressure Air Temp Water Temp Dewpoint Dewpoint Depression Visibility Wind Speed Wind Dir Waves Ship Positions

As Olivia

Last reported at 2017-Feb-27 12:22 UTC. Time now 2017-Feb-28 09:53 UTC.
Position N 31°02' E 122°50'.

Length 146 m; draft 7 m.

Type: Tanker. MMSI: 548767000.

Date/timePositionNaut miles runAvg speedWind from/ knotsBaromVisibWave heightAir tempDewpointWater temp
2017-Feb-27 12:22N 31°02' E 122°50'2212.0
2017-Feb-27 10:33N 31°06' E 122°25'1413.7
2017-Feb-27 09:33N 31°11' E 122°10'1414.3
2017-Feb-27 08:33N 31°16' E 121°54'1414.0
2017-Feb-27 07:33N 31°21' E 121°39'1010.4
2017-Feb-27 06:33N 31°26' E 121°29'9 8.7
2017-Feb-27 05:34N 31°32' E 121°21'1110.8
2017-Feb-27 04:33N 31°40' E 121°12'1212.2
2017-Feb-27 03:33N 31°47' E 121°00'2510.8
2017-Feb-27 01:12N 32°00' E 120°35'710.0
2017-Feb-27 00:32N 32°00' E 120°27'1 0.0
2017-Feb-26 06:08N 31°60' E 120°27'2 3.4
2017-Feb-26 05:33N 31°58' E 120°26'4 0.2
2017-Feb-25 01:33N 32°03' E 120°25'7 6.7
2017-Feb-25 00:31N 32°03' E 120°33'23 1.3
2017-Feb-24 06:23N 31°50' E 120°55'8 9.9
2017-Feb-24 05:33N 31°46' E 121°03'1414.1
2017-Feb-24 04:33N 31°37' E 121°16'1312.6
2017-Feb-24 03:34N 31°29' E 121°27'9 8.9
2017-Feb-24 02:33N 31°23' E 121°35'9 8.6
2017-Feb-24 01:29N 31°18' E 121°44'  
2017-Feb-20 07:14N 38°52' E 122°15'0 0.0
2017-Feb-20 06:16N 38°52' E 122°15'0 0.0
2017-Feb-20 05:29N 38°52' E 122°15'0 0.0
2017-Feb-20 04:26N 38°52' E 122°15'0 0.0
2017-Feb-20 03:18N 38°52' E 122°15'0 0.0
2017-Feb-20 02:33N 38°52' E 122°15'0 0.0
2017-Feb-20 01:18N 38°52' E 122°15'  

Dump ship's entire track history